Asian Infinity — 3EVP3 — position and weather

sailwx.info

Track history (hours):
 
Tides and Currents Weather Stations Pressure Air Temp Water Temp Dewpoint Dewpoint Depression Visibility Wind Speed Wind Dir Waves Ship Positions

Asian Infinity

Last reported at 2016-May-24 11:16 UTC. Time now 2016-May-24 11:53 UTC.
Position N 31°22' E 121°30'.

Length 104 m; draft 6.9 m.

Type: Cargo ship. MMSI: 351868000.

Date/timePositionNaut miles runAvg speedWind from/ knotsBaromVisibWave heightAir tempDewpointWater temp
2016-May-24 11:16N 31°22' E 121°30'0 0.0
2016-May-24 10:16N 31°22' E 121°30'0 0.0
2016-May-24 09:26N 31°22' E 121°30'2 2.7
2016-May-24 08:33N 31°24' E 121°32'7 6.5
2016-May-24 07:33N 31°21' E 121°39'8 8.2
2016-May-24 06:33N 31°16' E 121°46'  
2016-May-19 11:06N 34°31' E 134°42'711.4
2016-May-19 10:30N 34°34' E 134°49'1212.6
2016-May-19 09:33N 34°36' E 135°03'9 9.3
2016-May-19 08:33N 34°37' E 135°15'5 4.8
2016-May-19 07:34N 34°42' E 135°15'0 0.0
2016-May-19 06:27N 34°42' E 135°15'0 0.0
2016-May-19 04:21N 34°42' E 135°15'0 0.0
2016-May-19 03:33N 34°42' E 135°15'0 0.0
2016-May-19 01:32N 34°42' E 135°15'0 0.0
2016-May-19 00:27N 34°42' E 135°15'0 0.0
2016-May-18 23:27N 34°42' E 135°15'0 0.0
2016-May-18 22:33N 34°42' E 135°15'0 0.0
2016-May-18 21:33N 34°42' E 135°15'0 0.0
2016-May-18 20:33N 34°42' E 135°15'0 0.0
2016-May-18 19:21N 34°42' E 135°15'0 0.0
2016-May-18 18:33N 34°42' E 135°15'0 0.0
2016-May-18 17:27N 34°42' E 135°15'0 0.0
2016-May-18 16:33N 34°42' E 135°15'0 0.0
2016-May-18 15:32N 34°42' E 135°15'0 0.0
2016-May-18 14:33N 34°42' E 135°15'0 0.0
2016-May-18 13:33N 34°42' E 135°15'0 0.0
2016-May-18 12:20N 34°42' E 135°15'0 0.0
2016-May-18 11:09N 34°42' E 135°15'0 0.0
2016-May-18 10:27N 34°42' E 135°15'0 0.0
2016-May-18 09:32N 34°42' E 135°15'0 0.0
2016-May-18 08:21N 34°42' E 135°15'0 0.0
2016-May-18 07:33N 34°42' E 135°15'0 0.0
2016-May-18 06:27N 34°42' E 135°15'0 0.0
2016-May-18 05:33N 34°42' E 135°15'0 0.0
2016-May-18 04:15N 34°42' E 135°15'0 0.0
2016-May-18 03:27N 34°42' E 135°15'0 0.0
2016-May-18 02:33N 34°42' E 135°15'0 0.0
2016-May-18 01:15N 34°42' E 135°15'0 0.0
2016-May-18 00:32N 34°42' E 135°15'0 0.0
2016-May-17 23:33N 34°42' E 135°15'0 0.0
2016-May-17 21:32N 34°42' E 135°15'0 0.0
2016-May-17 20:33N 34°42' E 135°15'0 0.0
2016-May-17 19:32N 34°42' E 135°15'0 0.0
2016-May-17 18:32N 34°42' E 135°15'0 0.0
2016-May-17 17:33N 34°42' E 135°15'0 0.0
2016-May-17 16:32N 34°42' E 135°15'0 0.0
2016-May-17 15:33N 34°42' E 135°15'0 0.0
2016-May-17 14:33N 34°42' E 135°15'0 0.0
2016-May-17 13:33N 34°42' E 135°15'0 0.0
2016-May-17 12:33N 34°42' E 135°15'0 0.0
2016-May-17 11:33N 34°42' E 135°15'0 0.0
2016-May-17 10:32N 34°42' E 135°15'0 0.0
2016-May-17 09:15N 34°42' E 135°15'0 0.0
2016-May-17 08:33N 34°42' E 135°15'2 2.2
2016-May-17 07:33N 34°40' E 135°15'6 5.7
2016-May-17 06:33N 34°34' E 135°16'8 8.5
2016-May-17 05:33N 34°27' E 135°09'10 9.8
2016-May-17 04:33N 34°20' E 135°01'10 9.8
2016-May-17 03:33N 34°11' E 134°59'  
Track history (hours):
 
Tides and Currents Weather Stations Pressure Air Temp Water Temp Dewpoint Dewpoint Depression Visibility Wind Speed Wind Dir Waves Ship Positions

Asian Infinity

Last reported at 2016-May-24 11:16 UTC. Time now 2016-May-24 11:53 UTC.
Position N 31°22' E 121°30'.

Length 104 m; draft 6.9 m.

Type: Cargo ship. MMSI: 351868000.

Date/timePositionNaut miles runAvg speedWind from/ knotsBaromVisibWave heightAir tempDewpointWater temp
2016-May-24 11:16N 31°22' E 121°30'0 0.0
2016-May-24 10:16N 31°22' E 121°30'0 0.0
2016-May-24 09:26N 31°22' E 121°30'2 2.7
2016-May-24 08:33N 31°24' E 121°32'7 6.5
2016-May-24 07:33N 31°21' E 121°39'8 8.2
2016-May-24 06:33N 31°16' E 121°46'  
2016-May-19 11:06N 34°31' E 134°42'711.4
2016-May-19 10:30N 34°34' E 134°49'1212.6
2016-May-19 09:33N 34°36' E 135°03'9 9.3
2016-May-19 08:33N 34°37' E 135°15'5 4.8
2016-May-19 07:34N 34°42' E 135°15'0 0.0
2016-May-19 06:27N 34°42' E 135°15'0 0.0
2016-May-19 04:21N 34°42' E 135°15'0 0.0
2016-May-19 03:33N 34°42' E 135°15'0 0.0
2016-May-19 01:32N 34°42' E 135°15'0 0.0
2016-May-19 00:27N 34°42' E 135°15'0 0.0
2016-May-18 23:27N 34°42' E 135°15'0 0.0
2016-May-18 22:33N 34°42' E 135°15'0 0.0
2016-May-18 21:33N 34°42' E 135°15'0 0.0
2016-May-18 20:33N 34°42' E 135°15'0 0.0
2016-May-18 19:21N 34°42' E 135°15'0 0.0
2016-May-18 18:33N 34°42' E 135°15'0 0.0
2016-May-18 17:27N 34°42' E 135°15'0 0.0
2016-May-18 16:33N 34°42' E 135°15'0 0.0
2016-May-18 15:32N 34°42' E 135°15'0 0.0
2016-May-18 14:33N 34°42' E 135°15'0 0.0
2016-May-18 13:33N 34°42' E 135°15'0 0.0
2016-May-18 12:20N 34°42' E 135°15'0 0.0
2016-May-18 11:09N 34°42' E 135°15'0 0.0
2016-May-18 10:27N 34°42' E 135°15'0 0.0
2016-May-18 09:32N 34°42' E 135°15'0 0.0
2016-May-18 08:21N 34°42' E 135°15'0 0.0
2016-May-18 07:33N 34°42' E 135°15'0 0.0
2016-May-18 06:27N 34°42' E 135°15'0 0.0
2016-May-18 05:33N 34°42' E 135°15'0 0.0
2016-May-18 04:15N 34°42' E 135°15'0 0.0
2016-May-18 03:27N 34°42' E 135°15'0 0.0
2016-May-18 02:33N 34°42' E 135°15'0 0.0
2016-May-18 01:15N 34°42' E 135°15'0 0.0
2016-May-18 00:32N 34°42' E 135°15'0 0.0
2016-May-17 23:33N 34°42' E 135°15'0 0.0
2016-May-17 21:32N 34°42' E 135°15'0 0.0
2016-May-17 20:33N 34°42' E 135°15'0 0.0
2016-May-17 19:32N 34°42' E 135°15'0 0.0
2016-May-17 18:32N 34°42' E 135°15'0 0.0
2016-May-17 17:33N 34°42' E 135°15'0 0.0
2016-May-17 16:32N 34°42' E 135°15'0 0.0
2016-May-17 15:33N 34°42' E 135°15'0 0.0
2016-May-17 14:33N 34°42' E 135°15'0 0.0
2016-May-17 13:33N 34°42' E 135°15'0 0.0
2016-May-17 12:33N 34°42' E 135°15'0 0.0
2016-May-17 11:33N 34°42' E 135°15'0 0.0
2016-May-17 10:32N 34°42' E 135°15'0 0.0
2016-May-17 09:15N 34°42' E 135°15'0 0.0
2016-May-17 08:33N 34°42' E 135°15'2 2.2
2016-May-17 07:33N 34°40' E 135°15'6 5.7
2016-May-17 06:33N 34°34' E 135°16'8 8.5
2016-May-17 05:33N 34°27' E 135°09'10 9.8
2016-May-17 04:33N 34°20' E 135°01'10 9.8
2016-May-17 03:33N 34°11' E 134°59'  

Dump ship's entire track history